<?xml version="1.0" encoding="UTF-8"?><gpx creator="Topokart for iOS" version="1.1" xmlns:xsi="http://www.w3.org/2001/XMLSchema-instance" xmlns="http://www.topografix.com/GPX/1/1" xsi:schemaLocation="http://www.topografix.com/GPX/1/1 http://www.topografix.com/GPX/1/1/gpx.xsd" xmlns:gpxtpx="http://www.garmin.com/xmlschemas/TrackPointExtension/v1">


	<metadata>
		<link href="http://www.aboveapps.no">
			<text>Topokart (Aboveapps)</text>
		</link>
		<time>2019-08-13T15:36:56Z</time>
	</metadata>

	<trk>
		<name><![CDATA[Tråeråsen - 13 Aug 2019 at 17:36]]></name>
		<trkseg>
			<trkpt lat="59.67401846783205" lon="9.049388654538475">
				<ele>452.1930732727051</ele>
				<time>2019-08-13T15:36:55Z</time>
			</trkpt>
			<trkpt lat="59.67398770624741" lon="9.04956475832411">
				<ele>451.7749214172363</ele>
				<time>2019-08-13T15:37:06Z</time>
			</trkpt>
			<trkpt lat="59.67393360106244" lon="9.049707418316089">
				<ele>450.03698857278897</ele>
				<time>2019-08-13T15:37:13Z</time>
			</trkpt>
			<trkpt lat="59.67387459246411" lon="9.049842534595216">
				<ele>448.7052382040557</ele>
				<time>2019-08-13T15:37:20Z</time>
			</trkpt>
			<trkpt lat="59.67381814034625" lon="9.04999273830005">
				<ele>447.6755132577175</ele>
				<time>2019-08-13T15:37:28Z</time>
			</trkpt>
			<trkpt lat="59.67375162994458" lon="9.050141684719408">
				<ele>447.8974066632594</ele>
				<time>2019-08-13T15:37:35Z</time>
			</trkpt>
			<trkpt lat="59.67369551310285" lon="9.050304209821904">
				<ele>448.088541632389</ele>
				<time>2019-08-13T15:37:42Z</time>
			</trkpt>
			<trkpt lat="59.67364220419868" lon="9.050479223960126">
				<ele>447.8336426180368</ele>
				<time>2019-08-13T15:37:51Z</time>
			</trkpt>
			<trkpt lat="59.673587302732905" lon="9.050654573374475">
				<ele>447.69609395615566</ele>
				<time>2019-08-13T15:37:58Z</time>
			</trkpt>
			<trkpt lat="59.67352825222506" lon="9.05079505407163">
				<ele>448.31451484664404</ele>
				<time>2019-08-13T15:38:04Z</time>
			</trkpt>
			<trkpt lat="59.673455371576985" lon="9.050929667436565">
				<ele>449.35565785332614</ele>
				<time>2019-08-13T15:38:11Z</time>
			</trkpt>
			<trkpt lat="59.6733785095249" lon="9.051058581107343">
				<ele>450.40429743970554</ele>
				<time>2019-08-13T15:38:18Z</time>
			</trkpt>
			<trkpt lat="59.6732912958224" lon="9.051166037106002">
				<ele>451.37011076982253</ele>
				<time>2019-08-13T15:38:25Z</time>
			</trkpt>
			<trkpt lat="59.67321816371723" lon="9.05128614977845">
				<ele>451.5794916442099</ele>
				<time>2019-08-13T15:38:32Z</time>
			</trkpt>
			<trkpt lat="59.67314398387416" lon="9.051409447574104">
				<ele>451.68723445398314</ele>
				<time>2019-08-13T15:38:39Z</time>
			</trkpt>
			<trkpt lat="59.67305467469587" lon="9.05151480809697">
				<ele>451.7802670619178</ele>
				<time>2019-08-13T15:38:47Z</time>
			</trkpt>
			<trkpt lat="59.67297240631624" lon="9.051607260488952">
				<ele>451.7644395673709</ele>
				<time>2019-08-13T15:38:59Z</time>
			</trkpt>
			<trkpt lat="59.672878990005394" lon="9.05167993158945">
				<ele>452.6051986334202</ele>
				<time>2019-08-13T15:39:30Z</time>
			</trkpt>
			<trkpt lat="59.672781550381025" lon="9.051709603526678">
				<ele>452.91321299748665</ele>
				<time>2019-08-13T15:39:38Z</time>
			</trkpt>
			<trkpt lat="59.672690313365" lon="9.051776910209146">
				<ele>453.12210908986367</ele>
				<time>2019-08-13T15:39:47Z</time>
			</trkpt>
			<trkpt lat="59.67259211936935" lon="9.05183181167492">
				<ele>453.4527886559412</ele>
				<time>2019-08-13T15:39:56Z</time>
			</trkpt>
			<trkpt lat="59.67250000225349" lon="9.051880091437187">
				<ele>452.65548794910137</ele>
				<time>2019-08-13T15:40:05Z</time>
			</trkpt>
			<trkpt lat="59.67240654403313" lon="9.051917642363396">
				<ele>452.48977382855765</ele>
				<time>2019-08-13T15:40:27Z</time>
			</trkpt>
			<trkpt lat="59.672311996165355" lon="9.051956785851207">
				<ele>453.448003961132</ele>
				<time>2019-08-13T15:40:56Z</time>
			</trkpt>
			<trkpt lat="59.67222130397304" lon="9.051895514139023">
				<ele>453.76242607020276</ele>
				<time>2019-08-13T15:41:09Z</time>
			</trkpt>
			<trkpt lat="59.67212541500076" lon="9.051971202724662">
				<ele>454.53643009115115</ele>
				<time>2019-08-13T15:41:17Z</time>
			</trkpt>
			<trkpt lat="59.67204838531061" lon="9.052062314012137">
				<ele>455.3168855071263</ele>
				<time>2019-08-13T15:41:24Z</time>
			</trkpt>
			<trkpt lat="59.67198770033165" lon="9.052193826072898">
				<ele>455.95893209465515</ele>
				<time>2019-08-13T15:41:32Z</time>
			</trkpt>
			<trkpt lat="59.67191909445419" lon="9.05233120546588">
				<ele>456.5578630547729</ele>
				<time>2019-08-13T15:41:40Z</time>
			</trkpt>
			<trkpt lat="59.67185769701346" lon="9.052475206562367">
				<ele>457.31188368087226</ele>
				<time>2019-08-13T15:41:48Z</time>
			</trkpt>
			<trkpt lat="59.67177723074301" lon="9.0525892004455">
				<ele>457.87030356681817</ele>
				<time>2019-08-13T15:41:56Z</time>
			</trkpt>
			<trkpt lat="59.67168071312799" lon="9.052583165475216">
				<ele>459.1932842077618</ele>
				<time>2019-08-13T15:42:05Z</time>
			</trkpt>
			<trkpt lat="59.67159199068292" lon="9.052527844914284">
				<ele>459.93933027980444</ele>
				<time>2019-08-13T15:42:17Z</time>
			</trkpt>
			<trkpt lat="59.671507249641856" lon="9.052465651192751">
				<ele>460.2927956012023</ele>
				<time>2019-08-13T15:42:24Z</time>
			</trkpt>
			<trkpt lat="59.67141261795505" lon="9.052405385308948">
				<ele>460.31320061977766</ele>
				<time>2019-08-13T15:42:32Z</time>
			</trkpt>
			<trkpt lat="59.67132628435238" lon="9.052338749178734">
				<ele>460.2134524060055</ele>
				<time>2019-08-13T15:42:39Z</time>
			</trkpt>
			<trkpt lat="59.67123676562651" lon="9.052254091956701">
				<ele>459.36885325491613</ele>
				<time>2019-08-13T15:42:46Z</time>
			</trkpt>
			<trkpt lat="59.67115018056675" lon="9.05217094347724">
				<ele>458.26140369841636</ele>
				<time>2019-08-13T15:42:53Z</time>
			</trkpt>
			<trkpt lat="59.671055004056235" lon="9.052106319003787">
				<ele>457.80033332343857</ele>
				<time>2019-08-13T15:43:00Z</time>
			</trkpt>
			<trkpt lat="59.67095836071267" lon="9.052081592389431">
				<ele>456.76032221668294</ele>
				<time>2019-08-13T15:43:06Z</time>
			</trkpt>
			<trkpt lat="59.67085371265157" lon="9.052056027584758">
				<ele>455.6509999595473</ele>
				<time>2019-08-13T15:43:12Z</time>
			</trkpt>
			<trkpt lat="59.67075032187595" lon="9.052066002049532">
				<ele>455.3832278116618</ele>
				<time>2019-08-13T15:43:19Z</time>
			</trkpt>
			<trkpt lat="59.670656570288976" lon="9.052088046454873">
				<ele>455.3619905407044</ele>
				<time>2019-08-13T15:43:28Z</time>
			</trkpt>
			<trkpt lat="59.67056130995943" lon="9.052071701743689">
				<ele>457.2650355773306</ele>
				<time>2019-08-13T15:43:56Z</time>
			</trkpt>
			<trkpt lat="59.67048360971703" lon="9.051961060621824">
				<ele>458.6874895385136</ele>
				<time>2019-08-13T15:44:04Z</time>
			</trkpt>
			<trkpt lat="59.67039987450435" lon="9.051880342894282">
				<ele>459.3031324570974</ele>
				<time>2019-08-13T15:44:13Z</time>
			</trkpt>
			<trkpt lat="59.67031081678315" lon="9.051810940736022">
				<ele>459.27197628526403</ele>
				<time>2019-08-13T15:44:20Z</time>
			</trkpt>
			<trkpt lat="59.670235295835575" lon="9.051697533586111">
				<ele>458.9221562772479</ele>
				<time>2019-08-13T15:44:31Z</time>
			</trkpt>
			<trkpt lat="59.67013638937815" lon="9.051674734809483">
				<ele>458.98651479746826</ele>
				<time>2019-08-13T15:44:40Z</time>
			</trkpt>
			<trkpt lat="59.67004431417181" lon="9.051630310722674">
				<ele>458.7930281277589</ele>
				<time>2019-08-13T15:44:50Z</time>
			</trkpt>
			<trkpt lat="59.66995249042257" lon="9.051603823908652">
				<ele>459.6815025884278</ele>
				<time>2019-08-13T15:45:43Z</time>
			</trkpt>
			<trkpt lat="59.66986259451105" lon="9.051532829188789">
				<ele>460.9568994883377</ele>
				<time>2019-08-13T15:46:13Z</time>
			</trkpt>
			<trkpt lat="59.66978279879286" lon="9.051420679324353">
				<ele>461.6646434812323</ele>
				<time>2019-08-13T15:46:27Z</time>
			</trkpt>
			<trkpt lat="59.66971016960188" lon="9.051314899706329">
				<ele>462.57755566461</ele>
				<time>2019-08-13T15:46:37Z</time>
			</trkpt>
			<trkpt lat="59.66962412936582" lon="9.051212305211509">
				<ele>463.8165960381802</ele>
				<time>2019-08-13T15:46:44Z</time>
			</trkpt>
			<trkpt lat="59.66953268280222" lon="9.051140807577456">
				<ele>463.93762687458894</ele>
				<time>2019-08-13T15:46:51Z</time>
			</trkpt>
			<trkpt lat="59.66944412799521" lon="9.051090851434553">
				<ele>465.54002916535666</ele>
				<time>2019-08-13T15:46:59Z</time>
			</trkpt>
			<trkpt lat="59.66935104696049" lon="9.051025891684974">
				<ele>466.4802940622374</ele>
				<time>2019-08-13T15:47:06Z</time>
			</trkpt>
			<trkpt lat="59.669253397788545" lon="9.050980545588816">
				<ele>467.0282439627379</ele>
				<time>2019-08-13T15:47:14Z</time>
			</trkpt>
			<trkpt lat="59.66915608389272" lon="9.050969732933725">
				<ele>467.2382491860695</ele>
				<time>2019-08-13T15:47:23Z</time>
			</trkpt>
			<trkpt lat="59.66907955711677" lon="9.050876861446584">
				<ele>467.10771707735984</ele>
				<time>2019-08-13T15:47:29Z</time>
			</trkpt>
			<trkpt lat="59.66899724682762" lon="9.050770076000179">
				<ele>466.9521439570204</ele>
				<time>2019-08-13T15:47:38Z</time>
			</trkpt>
			<trkpt lat="59.668931155521115" lon="9.050633870073641">
				<ele>467.8054691408309</ele>
				<time>2019-08-13T15:47:57Z</time>
			</trkpt>
			<trkpt lat="59.6688491805081" lon="9.050548458480323">
				<ele>468.97299444122604</ele>
				<time>2019-08-13T15:48:07Z</time>
			</trkpt>
			<trkpt lat="59.66876984579458" lon="9.050460280858958">
				<ele>469.19241654443516</ele>
				<time>2019-08-13T15:48:15Z</time>
			</trkpt>
			<trkpt lat="59.66870031790777" lon="9.050335977234925">
				<ele>469.802383371875</ele>
				<time>2019-08-13T15:48:23Z</time>
			</trkpt>
			<trkpt lat="59.668609709534486" lon="9.050284093254293">
				<ele>470.8461148775297</ele>
				<time>2019-08-13T15:48:35Z</time>
			</trkpt>
			<trkpt lat="59.66856180695786" lon="9.05011394061991">
				<ele>470.6334237689562</ele>
				<time>2019-08-13T15:48:58Z</time>
			</trkpt>
			<trkpt lat="59.66848029294952" lon="9.050000868746126">
				<ele>470.99366613452634</ele>
				<time>2019-08-13T15:49:06Z</time>
			</trkpt>
			<trkpt lat="59.66841818304702" lon="9.049857789658988">
				<ele>471.48204511939866</ele>
				<time>2019-08-13T15:49:15Z</time>
			</trkpt>
			<trkpt lat="59.668343835565885" lon="9.049731558197223">
				<ele>473.7863133686924</ele>
				<time>2019-08-13T15:49:26Z</time>
			</trkpt>
			<trkpt lat="59.66827481059327" lon="9.04959895648905">
				<ele>474.2120491282942</ele>
				<time>2019-08-13T15:49:35Z</time>
			</trkpt>
			<trkpt lat="59.66819576924636" lon="9.049503402792894">
				<ele>474.6348012301811</ele>
				<time>2019-08-13T15:49:44Z</time>
			</trkpt>
			<trkpt lat="59.66810633433951" lon="9.049476580702745">
				<ele>475.3104114623277</ele>
				<time>2019-08-13T15:49:53Z</time>
			</trkpt>
			<trkpt lat="59.668011702652706" lon="9.04943970032879">
				<ele>475.50996606665626</ele>
				<time>2019-08-13T15:50:04Z</time>
			</trkpt>
			<trkpt lat="59.66793932491882" lon="9.049324532979213">
				<ele>475.260926634562</ele>
				<time>2019-08-13T15:50:12Z</time>
			</trkpt>
			<trkpt lat="59.66786807874186" lon="9.049189584338151">
				<ele>475.5853837656182</ele>
				<time>2019-08-13T15:50:43Z</time>
			</trkpt>
			<trkpt lat="59.66780747758193" lon="9.049057150268041">
				<ele>475.72642115633164</ele>
				<time>2019-08-13T15:50:50Z</time>
			</trkpt>
			<trkpt lat="59.66774364938928" lon="9.04891926796087">
				<ele>474.8857127192024</ele>
				<time>2019-08-13T15:50:59Z</time>
			</trkpt>
			<trkpt lat="59.66770500881566" lon="9.048752971001946">
				<ele>474.2120863945428</ele>
				<time>2019-08-13T15:51:07Z</time>
			</trkpt>
			<trkpt lat="59.667657692972256" lon="9.048601593830668">
				<ele>474.3932844740086</ele>
				<time>2019-08-13T15:51:15Z</time>
			</trkpt>
			<trkpt lat="59.66758661443336" lon="9.048469914131843">
				<ele>474.39026961729644</ele>
				<time>2019-08-13T15:51:24Z</time>
			</trkpt>
			<trkpt lat="59.66751105157627" lon="9.048369918027007">
				<ele>474.8977547046594</ele>
				<time>2019-08-13T15:51:34Z</time>
			</trkpt>
			<trkpt lat="59.6674439963509" lon="9.048251900830351">
				<ele>475.16506265798955</ele>
				<time>2019-08-13T15:51:43Z</time>
			</trkpt>
			<trkpt lat="59.667375013287796" lon="9.048129273586952">
				<ele>474.7983718246021</ele>
				<time>2019-08-13T15:51:51Z</time>
			</trkpt>
			<trkpt lat="59.66730980208112" lon="9.047998515897476">
				<ele>475.2865584391627</ele>
				<time>2019-08-13T15:52:01Z</time>
			</trkpt>
			<trkpt lat="59.66722292365475" lon="9.047912433751904">
				<ele>476.06468593588363</ele>
				<time>2019-08-13T15:52:10Z</time>
			</trkpt>
			<trkpt lat="59.667133740205" lon="9.047859124847731">
				<ele>477.39416835952306</ele>
				<time>2019-08-13T15:52:19Z</time>
			</trkpt>
			<trkpt lat="59.66703906660868" lon="9.047828530901155">
				<ele>478.5107193946152</ele>
				<time>2019-08-13T15:52:30Z</time>
			</trkpt>
			<trkpt lat="59.666942087988986" lon="9.047826435425362">
				<ele>478.63406784147435</ele>
				<time>2019-08-13T15:52:40Z</time>
			</trkpt>
			<trkpt lat="59.66684762394024" lon="9.047826686882457">
				<ele>477.83923971952686</ele>
				<time>2019-08-13T15:52:51Z</time>
			</trkpt>
			<trkpt lat="59.66675081295861" lon="9.047803804286799">
				<ele>476.57483699898296</ele>
				<time>2019-08-13T15:53:00Z</time>
			</trkpt>
			<trkpt lat="59.66665006248249" lon="9.047802044087133">
				<ele>475.2295253082258</ele>
				<time>2019-08-13T15:53:09Z</time>
			</trkpt>
			<trkpt lat="59.66656888375027" lon="9.047881588348233">
				<ele>475.88930537601857</ele>
				<time>2019-08-13T15:53:41Z</time>
			</trkpt>
			<trkpt lat="59.6664864896421" lon="9.047954594724857">
				<ele>476.3692672468426</ele>
				<time>2019-08-13T15:53:52Z</time>
			</trkpt>
			<trkpt lat="59.666398186292184" lon="9.047890137889468">
				<ele>476.717764879878</ele>
				<time>2019-08-13T15:54:02Z</time>
			</trkpt>
			<trkpt lat="59.66630502143843" lon="9.047850659125528">
				<ele>477.09734589342565</ele>
				<time>2019-08-13T15:54:25Z</time>
			</trkpt>
			<trkpt lat="59.66621847828819" lon="9.047779832043728">
				<ele>477.8388384768124</ele>
				<time>2019-08-13T15:54:36Z</time>
			</trkpt>
			<trkpt lat="59.66612141584946" lon="9.047777904205999">
				<ele>478.8581094634461</ele>
				<time>2019-08-13T15:54:49Z</time>
			</trkpt>
			<trkpt lat="59.666028376724256" lon="9.047727277510843">
				<ele>480.15253066966693</ele>
				<time>2019-08-13T15:55:02Z</time>
			</trkpt>
			<trkpt lat="59.66593110473795" lon="9.047719147064766">
				<ele>480.40594628578253</ele>
				<time>2019-08-13T15:55:14Z</time>
			</trkpt>
			<trkpt lat="59.66584489686383" lon="9.047790393241725">
				<ele>483.28274358138697</ele>
				<time>2019-08-13T15:55:28Z</time>
			</trkpt>
			<trkpt lat="59.66576296376033" lon="9.047892568641387">
				<ele>485.1529193503792</ele>
				<time>2019-08-13T15:55:39Z</time>
			</trkpt>
			<trkpt lat="59.66566795488788" lon="9.047911679380618">
				<ele>485.66559911669424</ele>
				<time>2019-08-13T15:56:54Z</time>
			</trkpt>
			<trkpt lat="59.66558275284214" lon="9.047979321339213">
				<ele>486.47954814989214</ele>
				<time>2019-08-13T15:57:06Z</time>
			</trkpt>
			<trkpt lat="59.66549482667787" lon="9.048022991054737">
				<ele>486.20225617518315</ele>
				<time>2019-08-13T15:57:26Z</time>
			</trkpt>
			<trkpt lat="59.66540476312829" lon="9.04799139127978">
				<ele>489.4495839470867</ele>
				<time>2019-08-13T15:58:26Z</time>
			</trkpt>
			<trkpt lat="59.665306317675544" lon="9.04800999910482">
				<ele>489.756182643868</ele>
				<time>2019-08-13T15:58:36Z</time>
			</trkpt>
			<trkpt lat="59.66520963242246" lon="9.047972112902485">
				<ele>490.9379914960664</ele>
				<time>2019-08-13T15:58:46Z</time>
			</trkpt>
			<trkpt lat="59.665116509478224" lon="9.047944787898146">
				<ele>491.2252641359256</ele>
				<time>2019-08-13T15:58:56Z</time>
			</trkpt>
			<trkpt lat="59.6650244761814" lon="9.047989547261082">
				<ele>491.74846901267995</ele>
				<time>2019-08-13T15:59:06Z</time>
			</trkpt>
			<trkpt lat="59.66495163744284" lon="9.048094740145885">
				<ele>491.33562497058654</ele>
				<time>2019-08-13T15:59:57Z</time>
			</trkpt>
			<trkpt lat="59.664857089575065" lon="9.048134805643045">
				<ele>490.68260614526264</ele>
				<time>2019-08-13T16:00:38Z</time>
			</trkpt>
			<trkpt lat="59.66476237406923" lon="9.04815752060064">
				<ele>491.3995523125893</ele>
				<time>2019-08-13T16:01:01Z</time>
			</trkpt>
			<trkpt lat="59.66467683674736" lon="9.048216277741872">
				<ele>492.0061338319905</ele>
				<time>2019-08-13T16:01:10Z</time>
			</trkpt>
			<trkpt lat="59.664592724349035" lon="9.048282997691118">
				<ele>493.98631407019514</ele>
				<time>2019-08-13T16:01:20Z</time>
			</trkpt>
			<trkpt lat="59.66450333135171" lon="9.048356506981932">
				<ele>495.9237076752888</ele>
				<time>2019-08-13T16:01:34Z</time>
			</trkpt>
			<trkpt lat="59.664413435440196" lon="9.048396404841029">
				<ele>496.1762106132061</ele>
				<time>2019-08-13T16:02:16Z</time>
			</trkpt>
			<trkpt lat="59.66431846847726" lon="9.048365307980262">
				<ele>496.259010838854</ele>
				<time>2019-08-13T16:02:37Z</time>
			</trkpt>
			<trkpt lat="59.66422886593236" lon="9.048394393184267">
				<ele>495.9268422548787</ele>
				<time>2019-08-13T16:02:46Z</time>
			</trkpt>
			<trkpt lat="59.6641462622766" lon="9.048464298256718">
				<ele>496.3790577588834</ele>
				<time>2019-08-13T16:02:58Z</time>
			</trkpt>
			<trkpt lat="59.66406026395006" lon="9.04852204956957">
				<ele>496.85425711293215</ele>
				<time>2019-08-13T16:03:08Z</time>
			</trkpt>
			<trkpt lat="59.663960686940385" lon="9.048527162530505">
				<ele>496.0843024524984</ele>
				<time>2019-08-13T16:04:03Z</time>
			</trkpt>
			<trkpt lat="59.663861235659255" lon="9.048532107853376">
				<ele>494.7372873077875</ele>
				<time>2019-08-13T16:04:10Z</time>
			</trkpt>
			<trkpt lat="59.6637691185434" lon="9.048580052339517">
				<ele>497.473440450525</ele>
				<time>2019-08-13T16:04:23Z</time>
			</trkpt>
			<trkpt lat="59.66372746048464" lon="9.048746097841345">
				<ele>498.83976260466966</ele>
				<time>2019-08-13T16:05:04Z</time>
			</trkpt>
			<trkpt lat="59.66366518294407" lon="9.048877526083075">
				<ele>500.00343301198905</ele>
				<time>2019-08-13T16:05:16Z</time>
			</trkpt>
			<trkpt lat="59.66360655153139" lon="9.049022197731816">
				<ele>500.91520691349274</ele>
				<time>2019-08-13T16:05:35Z</time>
			</trkpt>
			<trkpt lat="59.66351464396311" lon="9.049077350654684">
				<ele>502.092739997383</ele>
				<time>2019-08-13T16:05:51Z</time>
			</trkpt>
			<trkpt lat="59.66348388237847" lon="9.049252700069033">
				<ele>503.55067965735134</ele>
				<time>2019-08-13T16:06:36Z</time>
			</trkpt>
			<trkpt lat="59.66342240111871" lon="9.049390750014268">
				<ele>506.748661051304</ele>
				<time>2019-08-13T16:07:00Z</time>
			</trkpt>
			<trkpt lat="59.66340924153073" lon="9.049566853799902">
				<ele>514.1756411309619</ele>
				<time>2019-08-13T16:07:25Z</time>
			</trkpt>
			<trkpt lat="59.663418000619544" lon="9.049745388337456">
				<ele>517.8218238485682</ele>
				<time>2019-08-13T16:07:41Z</time>
			</trkpt>
			<trkpt lat="59.663457940388156" lon="9.04991260730573">
				<ele>523.0460204218947</ele>
				<time>2019-08-13T16:08:05Z</time>
			</trkpt>
			<trkpt lat="59.66343845246328" lon="9.05008753762492">
				<ele>526.9021774906856</ele>
				<time>2019-08-13T16:08:20Z</time>
			</trkpt>
			<trkpt lat="59.66342944191737" lon="9.05026783236214">
				<ele>530.053041657278</ele>
				<time>2019-08-13T16:08:36Z</time>
			</trkpt>
			<trkpt lat="59.663403835203184" lon="9.050448378556455">
				<ele>536.1842372849002</ele>
				<time>2019-08-13T16:09:01Z</time>
			</trkpt>
			<trkpt lat="59.66337743220819" lon="9.050624482342089">
				<ele>538.9300283081733</ele>
				<time>2019-08-13T16:09:25Z</time>
			</trkpt>
			<trkpt lat="59.663376007284654" lon="9.050807626926387">
				<ele>540.7901063944548</ele>
				<time>2019-08-13T16:10:01Z</time>
			</trkpt>
			<trkpt lat="59.66341695288165" lon="9.050966212534393">
				<ele>542.9915014196736</ele>
				<time>2019-08-13T16:10:17Z</time>
			</trkpt>
			<trkpt lat="59.66341401921554" lon="9.051156230279291">
				<ele>543.914662515097</ele>
				<time>2019-08-13T16:10:32Z</time>
			</trkpt>
			<trkpt lat="59.66339008888198" lon="9.051336022102321">
				<ele>543.5846913057371</ele>
				<time>2019-08-13T16:10:56Z</time>
			</trkpt>
			<trkpt lat="59.6633597463925" lon="9.051507683479274">
				<ele>545.8169556042814</ele>
				<time>2019-08-13T16:11:43Z</time>
			</trkpt>
			<trkpt lat="59.66334964619918" lon="9.051686134197796">
				<ele>548.804831078388</ele>
				<time>2019-08-13T16:11:58Z</time>
			</trkpt>
			<trkpt lat="59.663379024769796" lon="9.051859891050544">
				<ele>550.7347714320471</ele>
				<time>2019-08-13T16:12:15Z</time>
			</trkpt>
			<trkpt lat="59.663324710037244" lon="9.052016800277915">
				<ele>553.8765537528891</ele>
				<time>2019-08-13T16:12:42Z</time>
			</trkpt>
			<trkpt lat="59.66331687295778" lon="9.052201788880911">
				<ele>556.2934088736107</ele>
				<time>2019-08-13T16:13:02Z</time>
			</trkpt>
			<trkpt lat="59.66338770003958" lon="9.052336988979068">
				<ele>559.2968073177194</ele>
				<time>2019-08-13T16:13:34Z</time>
			</trkpt>
			<trkpt lat="59.663461502697004" lon="9.052444528796759">
				<ele>561.5739584615918</ele>
				<time>2019-08-13T16:13:48Z</time>
			</trkpt>
			<trkpt lat="59.66355261398448" lon="9.052389040597763">
				<ele>562.0398294887411</ele>
				<time>2019-08-13T16:14:30Z</time>
			</trkpt>
			<trkpt lat="59.66364267753406" lon="9.052316453316298">
				<ele>564.0680876881888</ele>
				<time>2019-08-13T16:14:45Z</time>
			</trkpt>
			<trkpt lat="59.66369736945225" lon="9.052171027296271">
				<ele>563.375679099626</ele>
				<time>2019-08-13T16:14:57Z</time>
			</trkpt>
			<trkpt lat="59.66365692676945" lon="9.052006239079919">
				<ele>563.1274754373151</ele>
				<time>2019-08-13T16:15:08Z</time>
			</trkpt>
			<trkpt lat="59.66370030311836" lon="9.051845138900962">
				<ele>563.3985670211084</ele>
				<time>2019-08-13T16:15:42Z</time>
			</trkpt>
			<trkpt lat="59.663676079418195" lon="9.051673896619166">
				<ele>564.0355504987147</ele>
				<time>2019-08-13T16:15:58Z</time>
			</trkpt>
			<trkpt lat="59.66362365061386" lon="9.051517322667921">
				<ele>564.6636642885755</ele>
				<time>2019-08-13T16:16:42Z</time>
			</trkpt>
			<trkpt lat="59.66371275024457" lon="9.051550850280607">
				<ele>564.9197792693453</ele>
				<time>2019-08-13T16:16:55Z</time>
			</trkpt>
			<trkpt lat="59.663755707498325" lon="9.051384720959748">
				<ele>564.6701967057938</ele>
				<time>2019-08-13T16:17:36Z</time>
			</trkpt>
			<trkpt lat="59.66383529366894" lon="9.051294699319685">
				<ele>565.3810715167222</ele>
				<time>2019-08-13T16:18:56Z</time>
			</trkpt>
			<trkpt lat="59.66392472857578" lon="9.051249772318686">
				<ele>564.4001231802715</ele>
				<time>2019-08-13T16:20:18Z</time>
			</trkpt>
			<trkpt lat="59.66400481766058" lon="9.051152206965769">
				<ele>563.1796334028754</ele>
				<time>2019-08-13T16:20:29Z</time>
			</trkpt>
			<trkpt lat="59.66409416874839" lon="9.051186405130709">
				<ele>561.0680292283191</ele>
				<time>2019-08-13T16:21:21Z</time>
			</trkpt>
			<trkpt lat="59.66418385511233" lon="9.051153548070276">
				<ele>557.6920311386225</ele>
				<time>2019-08-13T16:21:39Z</time>
			</trkpt>
			<trkpt lat="59.66427303856207" lon="9.051192104824866">
				<ele>557.1159600155248</ele>
				<time>2019-08-13T16:22:05Z</time>
			</trkpt>
			<trkpt lat="59.66435534885122" lon="9.051094036557759">
				<ele>556.1660599125852</ele>
				<time>2019-08-13T16:22:50Z</time>
			</trkpt>
			<trkpt lat="59.66444528667225" lon="9.05105497688898">
				<ele>556.1815288064449</ele>
				<time>2019-08-13T16:23:12Z</time>
			</trkpt>
			<trkpt lat="59.66453107545121" lon="9.050980629407848">
				<ele>554.6985515801053</ele>
				<time>2019-08-13T16:23:23Z</time>
			</trkpt>
			<trkpt lat="59.664625288042856" lon="9.050958836459602">
				<ele>553.0937358260501</ele>
				<time>2019-08-13T16:23:36Z</time>
			</trkpt>
			<trkpt lat="59.66472276957674" lon="9.050948694356764">
				<ele>550.6500540943941</ele>
				<time>2019-08-13T16:23:49Z</time>
			</trkpt>
			<trkpt lat="59.664808432627154" lon="9.050876609989489">
				<ele>545.769880997043</ele>
				<time>2019-08-13T16:24:41Z</time>
			</trkpt>
			<trkpt lat="59.664879133980406" lon="9.050758676611865">
				<ele>542.9116015359663</ele>
				<time>2019-08-13T16:24:57Z</time>
			</trkpt>
			<trkpt lat="59.664969700444175" lon="9.050720119857276">
				<ele>540.759772358265</ele>
				<time>2019-08-13T16:25:18Z</time>
			</trkpt>
			<trkpt lat="59.66506789443983" lon="9.050745014109696">
				<ele>538.4966512710347</ele>
				<time>2019-08-13T16:25:31Z</time>
			</trkpt>
			<trkpt lat="59.665157077889575" lon="9.050767980524386">
				<ele>538.236657398735</ele>
				<time>2019-08-13T16:25:40Z</time>
			</trkpt>
			<trkpt lat="59.66525133239074" lon="9.050806537278975">
				<ele>537.8411271565648</ele>
				<time>2019-08-13T16:26:10Z</time>
			</trkpt>
			<trkpt lat="59.66533125383748" lon="9.050913574182475">
				<ele>538.1267522156977</ele>
				<time>2019-08-13T16:26:19Z</time>
			</trkpt>
			<trkpt lat="59.66541054664148" lon="9.050997644671286">
				<ele>537.8308824654292</ele>
				<time>2019-08-13T16:26:27Z</time>
			</trkpt>
			<trkpt lat="59.6655038791333" lon="9.05103544705459">
				<ele>536.0861376468719</ele>
				<time>2019-08-13T16:26:36Z</time>
			</trkpt>
			<trkpt lat="59.66558774007453" lon="9.05110727996477">
				<ele>535.3042334514687</ele>
				<time>2019-08-13T16:26:48Z</time>
			</trkpt>
			<trkpt lat="59.66566120745583" lon="9.051210461192811">
				<ele>534.5195960654045</ele>
				<time>2019-08-13T16:26:58Z</time>
			</trkpt>
			<trkpt lat="59.66574062598838" lon="9.051327891656245">
				<ele>534.0482239122969</ele>
				<time>2019-08-13T16:27:06Z</time>
			</trkpt>
			<trkpt lat="59.665841125007404" lon="9.051366951325024">
				<ele>533.1150127332832</ele>
				<time>2019-08-13T16:27:13Z</time>
			</trkpt>
			<trkpt lat="59.665927207152976" lon="9.05143861659714">
				<ele>533.659123665434</ele>
				<time>2019-08-13T16:27:21Z</time>
			</trkpt>
			<trkpt lat="59.66601722879304" lon="9.051444316291297">
				<ele>532.8408509192561</ele>
				<time>2019-08-13T16:27:34Z</time>
			</trkpt>
			<trkpt lat="59.66611106419904" lon="9.051503492527688">
				<ele>531.6207668847637</ele>
				<time>2019-08-13T16:28:05Z</time>
			</trkpt>
			<trkpt lat="59.66617916716231" lon="9.051624359571422">
				<ele>531.1547490408956</ele>
				<time>2019-08-13T16:28:22Z</time>
			</trkpt>
			<trkpt lat="59.666253808010055" lon="9.051730139189448">
				<ele>528.4358478234734</ele>
				<time>2019-08-13T16:28:31Z</time>
			</trkpt>
			<trkpt lat="59.66632283298267" lon="9.051863495268908">
				<ele>526.1953651137464</ele>
				<time>2019-08-13T16:28:41Z</time>
			</trkpt>
			<trkpt lat="59.6664000722204" lon="9.051987128340688">
				<ele>526.8404998274926</ele>
				<time>2019-08-13T16:28:50Z</time>
			</trkpt>
			<trkpt lat="59.66647337196363" lon="9.052093075596776">
				<ele>525.9531331992619</ele>
				<time>2019-08-13T16:29:02Z</time>
			</trkpt>
			<trkpt lat="59.666554802152945" lon="9.052172787495937">
				<ele>523.3206994155256</ele>
				<time>2019-08-13T16:29:45Z</time>
			</trkpt>
			<trkpt lat="59.66663753153725" lon="9.052251242109623">
				<ele>521.040637265156</ele>
				<time>2019-08-13T16:29:57Z</time>
			</trkpt>
			<trkpt lat="59.66670286847247" lon="9.052389292054858">
				<ele>518.8976462285142</ele>
				<time>2019-08-13T16:30:04Z</time>
			</trkpt>
			<trkpt lat="59.666781029719544" lon="9.05249834061512">
				<ele>519.467838258727</ele>
				<time>2019-08-13T16:30:13Z</time>
			</trkpt>
			<trkpt lat="59.66684787539734" lon="9.052618620925632">
				<ele>518.050773330507</ele>
				<time>2019-08-13T16:30:24Z</time>
			</trkpt>
			<trkpt lat="59.66692649764909" lon="9.05273579993197">
				<ele>517.1253159509583</ele>
				<time>2019-08-13T16:30:34Z</time>
			</trkpt>
			<trkpt lat="59.66700671246244" lon="9.05285599642345">
				<ele>516.8499163230182</ele>
				<time>2019-08-13T16:30:43Z</time>
			</trkpt>
			<trkpt lat="59.6670819400434" lon="9.052985077732291">
				<ele>515.4319840763665</ele>
				<time>2019-08-13T16:30:52Z</time>
			</trkpt>
			<trkpt lat="59.667161442394985" lon="9.053094629206743">
				<ele>513.818899097584</ele>
				<time>2019-08-13T16:31:01Z</time>
			</trkpt>
			<trkpt lat="59.667243501227034" lon="9.053174844020095">
				<ele>513.232920919112</ele>
				<time>2019-08-13T16:31:12Z</time>
			</trkpt>
			<trkpt lat="59.66732874518229" lon="9.053233852618423">
				<ele>511.2878539079329</ele>
				<time>2019-08-13T16:31:21Z</time>
			</trkpt>
			<trkpt lat="59.667427316363586" lon="9.05323712156066">
				<ele>510.2944676625075</ele>
				<time>2019-08-13T16:31:29Z</time>
			</trkpt>
			<trkpt lat="59.667522534783615" lon="9.053226308905568">
				<ele>509.0504962311296</ele>
				<time>2019-08-13T16:31:37Z</time>
			</trkpt>
			<trkpt lat="59.667618549484445" lon="9.053198648625102">
				<ele>507.19893182651754</ele>
				<time>2019-08-13T16:31:47Z</time>
			</trkpt>
			<trkpt lat="59.667717707398964" lon="9.053189428531613">
				<ele>505.49291256175525</ele>
				<time>2019-08-13T16:31:57Z</time>
			</trkpt>
			<trkpt lat="59.66780559165372" lon="9.05314626173028">
				<ele>502.4415367259322</ele>
				<time>2019-08-13T16:32:05Z</time>
			</trkpt>
			<trkpt lat="59.66788962023301" lon="9.053067304202404">
				<ele>500.40764440025123</ele>
				<time>2019-08-13T16:32:11Z</time>
			</trkpt>
			<trkpt lat="59.667964261080755" lon="9.05295909383246">
				<ele>499.5226059248632</ele>
				<time>2019-08-13T16:32:16Z</time>
			</trkpt>
			<trkpt lat="59.66802544897391" lon="9.052794137978044">
				<ele>498.79146316481354</ele>
				<time>2019-08-13T16:32:23Z</time>
			</trkpt>
			<trkpt lat="59.668091540280415" lon="9.052643096082893">
				<ele>497.65679279939854</ele>
				<time>2019-08-13T16:32:30Z</time>
			</trkpt>
			<trkpt lat="59.668153021540185" lon="9.052485767760363">
				<ele>495.62615905457744</ele>
				<time>2019-08-13T16:32:38Z</time>
			</trkpt>
			<trkpt lat="59.66822875203534" lon="9.052374539905276">
				<ele>494.3549942710363</ele>
				<time>2019-08-13T16:32:45Z</time>
			</trkpt>
			<trkpt lat="59.66832560492649" lon="9.052314441659536">
				<ele>491.7591421072517</ele>
				<time>2019-08-13T16:32:53Z</time>
			</trkpt>
			<trkpt lat="59.668411016519805" lon="9.052214780830827">
				<ele>490.04490265458435</ele>
				<time>2019-08-13T16:33:00Z</time>
			</trkpt>
			<trkpt lat="59.66850355273082" lon="9.052139343702283">
				<ele>488.5450606469185</ele>
				<time>2019-08-13T16:33:16Z</time>
			</trkpt>
			<trkpt lat="59.66859634039893" lon="9.05207857490429">
				<ele>488.0143358357833</ele>
				<time>2019-08-13T16:33:22Z</time>
			</trkpt>
			<trkpt lat="59.66869093017622" lon="9.052004478880253">
				<ele>486.85910730033345</ele>
				<time>2019-08-13T16:33:29Z</time>
			</trkpt>
			<trkpt lat="59.66879054909541" lon="9.051947062843528">
				<ele>485.96501837031565</ele>
				<time>2019-08-13T16:33:36Z</time>
			</trkpt>
			<trkpt lat="59.66888631233915" lon="9.051885372036185">
				<ele>484.9313439944899</ele>
				<time>2019-08-13T16:33:43Z</time>
			</trkpt>
			<trkpt lat="59.668983249049326" lon="9.051823262133684">
				<ele>483.9779788594574</ele>
				<time>2019-08-13T16:33:51Z</time>
			</trkpt>
			<trkpt lat="59.669069247375866" lon="9.051761403688278">
				<ele>483.097465747932</ele>
				<time>2019-08-13T16:33:58Z</time>
			</trkpt>
			<trkpt lat="59.669151012841304" lon="9.051668783658231">
				<ele>480.7063060131959</ele>
				<time>2019-08-13T16:34:06Z</time>
			</trkpt>
			<trkpt lat="59.66924744663729" lon="9.051620168619836">
				<ele>479.8691338748872</ele>
				<time>2019-08-13T16:34:15Z</time>
			</trkpt>
			<trkpt lat="59.66934928676083" lon="9.051617821686948">
				<ele>478.75411985906874</ele>
				<time>2019-08-13T16:34:23Z</time>
			</trkpt>
			<trkpt lat="59.66945054015114" lon="9.051610194155062">
				<ele>477.0749055679273</ele>
				<time>2019-08-13T16:34:38Z</time>
			</trkpt>
			<trkpt lat="59.669540729429265" lon="9.051606925212825">
				<ele>475.14761872217366</ele>
				<time>2019-08-13T16:34:45Z</time>
			</trkpt>
			<trkpt lat="59.66964248573377" lon="9.051563842230523">
				<ele>473.91026007806363</ele>
				<time>2019-08-13T16:34:53Z</time>
			</trkpt>
			<trkpt lat="59.66973313601657" lon="9.05151925050565">
				<ele>473.0116389683129</ele>
				<time>2019-08-13T16:35:00Z</time>
			</trkpt>
			<trkpt lat="59.66964663477584" lon="9.051456972965086">
				<ele>473.52726829507765</ele>
				<time>2019-08-13T16:35:19Z</time>
			</trkpt>
			<trkpt lat="59.66973627923026" lon="9.0514683723534">
				<ele>471.4764665266822</ele>
				<time>2019-08-13T16:35:40Z</time>
			</trkpt>
			<trkpt lat="59.669827558155795" lon="9.051484465607489">
				<ele>470.3688242771565</ele>
				<time>2019-08-13T16:35:48Z</time>
			</trkpt>
			<trkpt lat="59.66992596169903" lon="9.051546240233863">
				<ele>469.21978963658137</ele>
				<time>2019-08-13T16:35:56Z</time>
			</trkpt>
			<trkpt lat="59.669999554808875" lon="9.051661072307313">
				<ele>468.49824130103417</ele>
				<time>2019-08-13T16:36:02Z</time>
			</trkpt>
			<trkpt lat="59.67008743906363" lon="9.051727876075592">
				<ele>468.35043289465006</ele>
				<time>2019-08-13T16:36:12Z</time>
			</trkpt>
			<trkpt lat="59.67018290894075" lon="9.051785375931349">
				<ele>468.2182526207389</ele>
				<time>2019-08-13T16:36:20Z</time>
			</trkpt>
			<trkpt lat="59.67027008073374" lon="9.05184212141582">
				<ele>468.3062752713527</ele>
				<time>2019-08-13T16:36:30Z</time>
			</trkpt>
			<trkpt lat="59.670349918361445" lon="9.051939686768737">
				<ele>468.13734829317855</ele>
				<time>2019-08-13T16:36:37Z</time>
			</trkpt>
			<trkpt lat="59.67042133217647" lon="9.052054099747028">
				<ele>467.4060392058609</ele>
				<time>2019-08-13T16:36:43Z</time>
			</trkpt>
			<trkpt lat="59.670500457342406" lon="9.05217337422916">
				<ele>465.85934268319374</ele>
				<time>2019-08-13T16:36:49Z</time>
			</trkpt>
			<trkpt lat="59.67059378983422" lon="9.052245290958371">
				<ele>464.43825803502324</ele>
				<time>2019-08-13T16:36:55Z</time>
			</trkpt>
			<trkpt lat="59.67069990472837" lon="9.05226574280211">
				<ele>463.67224685162233</ele>
				<time>2019-08-13T16:37:00Z</time>
			</trkpt>
			<trkpt lat="59.67079231521084" lon="9.052264904611793">
				<ele>463.7954970442355</ele>
				<time>2019-08-13T16:37:04Z</time>
			</trkpt>
			<trkpt lat="59.67090115422352" lon="9.052260210746017">
				<ele>463.89987410280975</ele>
				<time>2019-08-13T16:37:09Z</time>
			</trkpt>
			<trkpt lat="59.6709954506342" lon="9.052246799700942">
				<ele>464.85809995486005</ele>
				<time>2019-08-13T16:37:14Z</time>
			</trkpt>
			<trkpt lat="59.67109008232101" lon="9.052284434446182">
				<ele>465.368532946742</ele>
				<time>2019-08-13T16:37:21Z</time>
			</trkpt>
			<trkpt lat="59.67118152888461" lon="9.052361380317297">
				<ele>465.72667479791176</ele>
				<time>2019-08-13T16:37:28Z</time>
			</trkpt>
			<trkpt lat="59.671279010418495" lon="9.052416030325976">
				<ele>465.48707082921726</ele>
				<time>2019-08-13T16:37:37Z</time>
			</trkpt>
			<trkpt lat="59.671374815571745" lon="9.052463974812117">
				<ele>465.4035676635052</ele>
				<time>2019-08-13T16:37:45Z</time>
			</trkpt>
			<trkpt lat="59.671464753392776" lon="9.052523905419793">
				<ele>465.31294817622387</ele>
				<time>2019-08-13T16:37:52Z</time>
			</trkpt>
			<trkpt lat="59.67155699623718" lon="9.052594816320624">
				<ele>464.6526777318421</ele>
				<time>2019-08-13T16:37:59Z</time>
			</trkpt>
			<trkpt lat="59.67164349747791" lon="9.05265960843214">
				<ele>463.79824058472593</ele>
				<time>2019-08-13T16:38:06Z</time>
			</trkpt>
			<trkpt lat="59.67173527931764" lon="9.052687520169702">
				<ele>462.8110738771986</ele>
				<time>2019-08-13T16:38:18Z</time>
			</trkpt>
			<trkpt lat="59.67183426959409" lon="9.052638737493243">
				<ele>461.3379857654043</ele>
				<time>2019-08-13T16:38:27Z</time>
			</trkpt>
			<trkpt lat="59.671904174666544" lon="9.052518708639827">
				<ele>461.13225733664666</ele>
				<time>2019-08-13T16:38:33Z</time>
			</trkpt>
			<trkpt lat="59.67196469200744" lon="9.052380323418465">
				<ele>460.6212761275573</ele>
				<time>2019-08-13T16:38:39Z</time>
			</trkpt>
			<trkpt lat="59.672021730858525" lon="9.052234394484248">
				<ele>460.2485332925804</ele>
				<time>2019-08-13T16:38:45Z</time>
			</trkpt>
			<trkpt lat="59.672101652305265" lon="9.052101876595106">
				<ele>460.08276512604385</ele>
				<time>2019-08-13T16:38:52Z</time>
			</trkpt>
			<trkpt lat="59.672191715854844" lon="9.052050327890601">
				<ele>459.12134807869603</ele>
				<time>2019-08-13T16:38:58Z</time>
			</trkpt>
			<trkpt lat="59.67228379106118" lon="9.052022080876913">
				<ele>459.0848584490202</ele>
				<time>2019-08-13T16:39:06Z</time>
			</trkpt>
			<trkpt lat="59.67237590817704" lon="9.052017470830169">
				<ele>459.82737171751774</ele>
				<time>2019-08-13T16:39:15Z</time>
			</trkpt>
			<trkpt lat="59.672465175445815" lon="9.051956534394112">
				<ele>459.92922229301723</ele>
				<time>2019-08-13T16:39:23Z</time>
			</trkpt>
			<trkpt lat="59.67256114823713" lon="9.051918229096618">
				<ele>461.3911807918664</ele>
				<time>2019-08-13T16:39:32Z</time>
			</trkpt>
			<trkpt lat="59.67264421289756" lon="9.051847653471913">
				<ele>461.718106918533</ele>
				<time>2019-08-13T16:39:41Z</time>
			</trkpt>
			<trkpt lat="59.67273134278103" lon="9.051795434215155">
				<ele>461.27774041158676</ele>
				<time>2019-08-13T16:39:50Z</time>
			</trkpt>
			<trkpt lat="59.672651127967676" lon="9.051878331237521">
				<ele>461.6795683247171</ele>
				<time>2019-08-13T16:40:24Z</time>
			</trkpt>
			<trkpt lat="59.67273725202276" lon="9.051786130302634">
				<ele>460.783853144552</ele>
				<time>2019-08-13T16:40:43Z</time>
			</trkpt>
			<trkpt lat="59.67282735748186" lon="9.05172972009429">
				<ele>460.37518487788986</ele>
				<time>2019-08-13T16:40:53Z</time>
			</trkpt>
			<trkpt lat="59.67292039660706" lon="9.05171848834404">
				<ele>460.26626792120476</ele>
				<time>2019-08-13T16:41:00Z</time>
			</trkpt>
			<trkpt lat="59.67300802940472" lon="9.051648834728683">
				<ele>459.82554123503587</ele>
				<time>2019-08-13T16:41:06Z</time>
			</trkpt>
			<trkpt lat="59.67310140380605" lon="9.051571134486283">
				<ele>459.77234439021277</ele>
				<time>2019-08-13T16:41:13Z</time>
			</trkpt>
			<trkpt lat="59.67318903660371" lon="9.051477340989793">
				<ele>460.45056389979163</ele>
				<time>2019-08-13T16:41:20Z</time>
			</trkpt>
			<trkpt lat="59.673257181476494" lon="9.051340967425192">
				<ele>460.94157077070645</ele>
				<time>2019-08-13T16:41:28Z</time>
			</trkpt>
			<trkpt lat="59.673304916415056" lon="9.05118648894974">
				<ele>458.4948445713844</ele>
				<time>2019-08-13T16:59:50Z</time>
			</trkpt>
			<trkpt lat="59.67339372267916" lon="9.051151955508674">
				<ele>461.77691591911474</ele>
				<time>2019-08-13T17:01:39Z</time>
			</trkpt>
			<trkpt lat="59.67347532050653" lon="9.051028322436894">
				<ele>461.557268058386</ele>
				<time>2019-08-13T17:01:45Z</time>
			</trkpt>
			<trkpt lat="59.673546440954944" lon="9.050895050176466">
				<ele>460.82526607193427</ele>
				<time>2019-08-13T17:01:52Z</time>
			</trkpt>
			<trkpt lat="59.67362820642038" lon="9.050786336892331">
				<ele>460.5604531435368</ele>
				<time>2019-08-13T17:01:58Z</time>
			</trkpt>
			<trkpt lat="59.67369442345544" lon="9.050640743234242">
				<ele>460.04643966093533</ele>
				<time>2019-08-13T17:02:05Z</time>
			</trkpt>
			<trkpt lat="59.67373993718966" lon="9.050471344971145">
				<ele>461.5308557189723</ele>
				<time>2019-08-13T17:02:13Z</time>
			</trkpt>
			<trkpt lat="59.67379609594091" lon="9.050309155144776">
				<ele>462.00631056606755</ele>
				<time>2019-08-13T17:02:21Z</time>
			</trkpt>
			<trkpt lat="59.67384835710718" lon="9.050160963096703">
				<ele>462.9283774277138</ele>
				<time>2019-08-13T17:02:29Z</time>
			</trkpt>
			<trkpt lat="59.67390128882571" lon="9.050013693057979">
				<ele>462.7739504352694</ele>
				<time>2019-08-13T17:02:37Z</time>
			</trkpt>
			<trkpt lat="59.673953047077795" lon="9.049848318108404">
				<ele>464.2404034990957</ele>
				<time>2019-08-13T17:02:45Z</time>
			</trkpt>
			<trkpt lat="59.674003422315856" lon="9.049696521841966">
				<ele>464.78142093922116</ele>
				<time>2019-08-13T17:02:52Z</time>
			</trkpt>
			<trkpt lat="59.674039757866105" lon="9.04952469282695">
				<ele>465.42728310254853</ele>
				<time>2019-08-13T17:02:59Z</time>
			</trkpt>
			<trkpt lat="59.67406020970984" lon="9.04933366925367">
				<ele>465.61344899827145</ele>
				<time>2019-08-13T17:03:07Z</time>
			</trkpt>
			<trkpt lat="59.674067166689476" lon="9.049144992613279">
				<ele>463.7991712365695</ele>
				<time>2019-08-13T17:03:33Z</time>
			</trkpt>
			<trkpt lat="59.67414423828914" lon="9.049023287379228">
				<ele>463.8972020827874</ele>
				<time>2019-08-13T17:03:42Z</time>
			</trkpt>
		</trkseg>
	</trk>
</gpx>